BERRYESSA (BER)

Elevation: 456' · PUTAH CR basin · Operator: US Bureau of Reclamation

Provisional data, subject to change.
Query executed Tuesday at 5:39:41   clock

Select a sensor type for a plot of data.
Note: Reservoir Flows are daily averages.

Earlier

Date RES ELE    STORAGE    OUTFLOW    INFLOW    PPT INC   
 FEET   AF   CFS   CFS   INCHES  
06/30/2014 409.77 1025942 800 151 0.00
07/01/2014 409.65 1024043 820 65 0.00
07/02/2014 409.51 1021829 827 -82 0.00
07/03/2014 409.43 1020566 758 249 0.00
07/04/2014 409.33 1018987 751 117 0.00
07/05/2014 409.22 1017251 766 73 0.00
07/06/2014 409.11 1015516 764 81 0.00
07/07/2014 408.98 1013468 736 -135 0.00
07/08/2014 408.90 1012209 756 244 0.00
07/09/2014 408.70 1009063 744 -695 0.00
07/10/2014 408.68 1008748 734 712 0.00
07/11/2014 408.58 1007177 750 100 0.00
07/12/2014 408.47 1005450 768 24 0.00
07/13/2014 408.36 1003724 770 61 0.00
07/14/2014 408.27 1002313 766 216 0.00
07/15/2014 408.16 1000590 779 105 0.00
07/16/2014 408.03 998554 773 -77 0.00
07/17/2014 407.93 996990 753 110 0.00
07/18/2014 407.83 995426 755 112 0.00
07/19/2014 407.72 993708 741 6 0.00
07/20/2014 407.60 991834 707 -77 0.00
07/21/2014 -- -- -- -- --
07/22/2014 -- -- -- -- --
07/23/2014 -- -- -- -- --
07/24/2014 -- -- -- -- --
07/25/2014 -- -- -- -- --
07/26/2014 -- -- -- -- --
07/27/2014 -- -- -- -- --
07/28/2014 -- -- -- -- --
07/29/2014 -- -- -- -- --

Later | Latest

Warning! This data is preliminary and subject to revision.

Download Data Now Download Data Now | Show BER Map | Plot BER Data | 1 Month BER Data | Real-Time BER Data | BER Info